Aeroporto :
LOGIN :

Iscrizione | Disclaimer

   EN    FR    IT 

 










Sommario :    VFR   VFR Marginale   IFR   IFR Intensivo   IFR Molto Intensivo
Visibilità : 
Base nubi : 
>= 8 km
>= 3000ft
5 / 8 km
1000 / 3000 ft
1500m / 5 km
500 / 1000 ft
800 / 1500m
200 / 500 ft
< 800m
< 200 ft
Simboli :   Temporali  Nebbia  Neve Forte  Precipitazioni Forti  Vento > 20 kt
SIGMETs :   Varie  Temporali  Ghiacco  Turbolenza  Onda orograficha  Ceneri Vulcaniche







- Altitudine del aeroporto : 102 ft
- Codice IATA : EXT
- Carte del aeroporto


EGTE - Exeter

ULTIMO METAR :
  • 201550Z 27007KT 220V320 9999 FEW045 20/10 Q1025

METARs OBSOLETI :
  • 201520Z 25009KT 210V280 9999 FEW045 22/10 Q1025
  • 201450Z 27009KT 230V300 9999 FEW045 20/08 Q1025
  • 201420Z 26008KT 220V310 9999 FEW045 22/09 Q1025
  • 201350Z 29009KT 250V330 9999 FEW045 21/08 Q1025
  • 201320Z 28008KT 250V330 9999 FEW045 19/08 Q1025

TAF TAF EGTE
Valido dal 20 a 15 ore il 21 a 00 ore UTC


201359Z 2015/2024 29006KT 9999 FEW035
Nessun NOTAM noto per questo aeroporto.



MetMap, La meteo Aeronautica in un colpo d'occhio ! - Copyright ORBIFLY Dicembre 2007 - Disclaimer

ORBIFLY MET'MAP TEAM :

Programmazione e sviluppo : Alexandra Zaïnal
Concezione e sviluppo : Baudouin d'Aumeries
Co-Programmazione e sviluppo : Marc-Olivier Méhu
Supporto tecnico e logistico : Manuel Goepfert
Aiuto per la traduzione : Arnaldo La Scala

Contatto : metmap@orbifly.com




FONTI E CREDITI :

   NOAA